Time;durP1;ratioP1;P1;durP2;ratioP2;P2;SDS_P1;SDS_P2;PMS_P1;PMS_P2;Temp;Humidity;BMP_temperature;BMP_pressure;BME280_temperature;BME280_humidity;BME280_pressure;Samples;Min_cycle;Max_cycle;Signal;HPM_P1;HPM_P2
2022/06/07 06:14:22;;;;;;;;;;;;;;;20.68;100.00;98139.19;5086280;23;20429;-71
2022/06/07 06:17:06;;;;;;;;;;;;;;;20.66;100.00;98151.00;5096569;27;20422;-71
2022/06/07 06:19:42;;;;;;;;;;;;;;;20.63;100.00;98149.13;5100475;28;19950;-71
2022/06/07 06:22:09;;;;;;;;;;;;;;;20.57;100.00;98141.66;5092515;28;19946;-71
2022/06/07 06:24:43;;;;;;;;;;;;;;;20.59;100.00;98147.69;5091308;28;19945;-71
2022/06/07 06:27:11;;;;;;;;;;;;;;;20.62;100.00;98141.84;5108374;28;19947;-71
2022/06/07 06:29:42;;;;;;;;;;;;;;;20.71;100.00;98153.25;5091562;28;19949;-71
2022/06/07 06:32:09;;;;;;;;;;;;;;;20.81;100.00;98137.78;5088165;28;19957;-71
2022/06/07 06:34:39;;;;;;;;;;;;;;;20.93;100.00;98142.56;5091489;28;19945;-71
2022/06/07 06:37:09;;;;;;;;;;;;;;;21.11;100.00;98146.72;5092000;28;19952;-71
2022/06/07 06:39:39;;;;;;;;;;;;;;;21.33;100.00;98148.16;5083232;28;20347;-71
2022/06/07 06:42:08;;;;;;;;;;;;;;;21.68;100.00;98136.44;5088100;28;19962;-71
2022/06/07 06:45:00;;;;;;;;;;;;;;;22.07;100.00;98132.59;5093220;28;19977;-71
2022/06/07 06:47:28;;;;;;;;;;;;;;;22.29;100.00;98127.47;5086218;28;20025;-71
2022/06/07 06:49:55;;;;;;;;;;;;;;;22.53;100.00;98131.16;5076148;28;19949;-71
2022/06/07 06:52:23;;;;;;;;;;;;;;;22.66;100.00;98128.13;5089103;28;20753;-71
2022/06/07 06:54:50;;;;;;;;;;;;;;;22.76;100.00;98133.28;5088939;28;19950;-71
2022/06/07 06:57:21;;;;;;;;;;;;;;;22.99;100.00;98133.75;5093660;28;19956;-71
2022/06/07 06:59:54;;;;;;;;;;;;;;;23.16;100.00;98132.06;5100401;28;19962;-71
2022/06/07 07:02:21;;;;;;;;;;;;;;;23.22;100.00;98138.69;5129398;27;19947;-71
2022/06/07 07:04:57;;;;;;;;;;;;;;;23.32;100.00;98134.50;5102315;28;19952;-71
2022/06/07 07:07:25;;;;;;;;;;;;;;;23.20;100.00;98126.97;5097312;28;19952;-71
2022/06/07 07:09:56;;;;;;;;;;;;;;;23.37;100.00;98131.00;5128561;27;19947;-71
2022/06/07 07:12:24;;;;;;;;;;;;;;;23.37;100.00;98122.44;5092272;28;20341;-70
2022/06/07 07:15:04;;;;;;;;;;;;;;;23.28;100.00;98120.41;5087422;28;19982;-70
2022/06/07 07:17:41;;;;;;;;;;;;;;;23.25;100.00;98124.25;5091673;28;19946;-70
2022/06/07 07:20:09;;;;;;;;;;;;;;;23.26;100.00;98122.94;5091984;28;19980;-70
2022/06/07 07:22:40;;;;;;;;;;;;;;;23.23;100.00;98123.91;5096436;28;20357;-70
2022/06/07 07:25:09;;;;;;;;;;;;;;;23.20;100.00;98122.06;5094032;28;20346;-70
2022/06/07 07:27:38;;;;;;;;;;;;;;;23.17;100.00;98119.38;5063903;28;20341;-70
2022/06/07 07:30:08;;;;;;;;;;;;;;;23.35;100.00;98122.09;5077927;28;19957;-70
2022/06/07 07:32:38;;;;;;;;;;;;;;;23.51;100.00;98118.81;5092273;28;19950;-70
2022/06/07 07:35:06;;;;;;;;;;;;;;;23.54;100.00;98117.84;5083831;28;19945;-70
2022/06/07 07:37:43;;;;;;;;;;;;;;;23.78;100.00;98106.34;5080173;28;19948;-70
2022/06/07 07:40:14;;;;;;;;;;;;;;;24.05;100.00;98115.41;5102695;27;19959;-70
2022/06/07 07:42:41;;;;;;;;;;;;;;;24.30;100.00;98116.13;5086261;28;20342;-69
2022/06/07 07:45:13;;;;;;;;;;;;;;;24.58;100.00;98123.03;5081453;28;19950;-70
2022/06/07 07:47:43;;;;;;;;;;;;;;;24.68;100.00;98124.50;5079427;28;19949;-70
2022/06/07 07:50:12;;;;;;;;;;;;;;;24.73;100.00;98127.44;5081993;28;20228;-70
2022/06/07 07:52:44;;;;;;;;;;;;;;;24.64;100.00;98124.72;5086641;28;19951;-69
2022/06/07 07:55:13;;;;;;;;;;;;;;;24.61;100.00;98124.91;5086846;28;19956;-69
2022/06/07 07:57:43;;;;;;;;;;;;;;;24.59;100.00;98121.78;5084499;28;19964;-70
2022/06/07 08:00:14;;;;;;;;;;;;;;;24.55;100.00;98109.78;5078267;28;19950;-70
2022/06/07 08:02:48;;;;;;;;;;;;;;;24.26;100.00;98104.88;5120985;27;20224;-70
2022/06/07 08:05:29;;;;;;;;;;;;;;;24.29;100.00;98103.09;5090280;28;19950;-70
2022/06/07 08:07:57;;;;;;;;;;;;;;;24.45;100.00;98096.88;5088778;28;19954;-70
2022/06/07 08:10:24;;;;;;;;;;;;;;;24.27;100.00;98094.25;5084727;28;19962;-70
2022/06/07 08:12:54;;;;;;;;;;;;;;;23.97;100.00;98082.03;5079373;28;19948;-70
2022/06/07 08:15:23;;;;;;;;;;;;;;;23.92;100.00;98085.56;5090148;28;19980;-70
2022/06/07 08:17:52;;;;;;;;;;;;;;;24.04;100.00;98085.25;5088095;28;19999;-70
2022/06/07 08:20:20;;;;;;;;;;;;;;;24.12;100.00;98086.47;5088342;28;19946;-70
2022/06/07 08:22:49;;;;;;;;;;;;;;;24.16;100.00;98078.47;5076660;28;19958;-70
2022/06/07 08:25:19;;;;;;;;;;;;;;;24.09;100.00;98075.25;5114981;27;19953;-70
2022/06/07 08:27:46;;;;;;;;;;;;;;;24.15;100.00;98082.63;5079972;28;19949;-70
2022/06/07 08:30:15;;;;;;;;;;;;;;;23.98;100.00;98072.19;5082835;28;19948;-70
2022/06/07 08:32:43;;;;;;;;;;;;;;;23.56;100.00;98075.31;5089842;28;19956;-70
2022/06/07 08:38:00;;;;;;;;;;;;;;;23.74;100.00;98069.44;5080020;28;19946;-70
2022/06/07 08:40:33;;;;;;;;;;;;;;;23.43;100.00;98060.53;5079008;28;19951;-70
2022/06/07 08:43:05;;;;;;;;;;;;;;;23.41;100.00;98061.03;5088068;28;19951;-70
2022/06/07 08:45:35;;;;;;;;;;;;;;;23.46;100.00;98054.66;5084996;28;20010;-70
2022/06/07 08:48:27;;;;;;;;;;;;;;;23.58;100.00;98060.53;5080901;28;19950;-70
2022/06/07 08:51:11;;;;;;;;;;;;;;;23.37;100.00;98053.94;5085516;28;19948;-70
2022/06/07 08:53:40;;;;;;;;;;;;;;;23.20;100.00;98058.50;5088364;28;19974;-70
2022/06/07 08:56:13;;;;;;;;;;;;;;;23.34;100.00;98046.31;5080561;28;19965;-70
2022/06/07 08:58:42;;;;;;;;;;;;;;;23.46;100.00;98043.22;5082486;28;20380;-70
2022/06/07 09:01:15;;;;;;;;;;;;;;;23.38;100.00;98041.25;5078847;28;19950;-70
2022/06/07 09:03:54;;;;;;;;;;;;;;;23.48;100.00;98037.81;5080751;28;19951;-70
2022/06/07 09:06:23;;;;;;;;;;;;;;;23.71;100.00;98032.50;5075312;28;19945;-69
2022/06/07 09:08:52;;;;;;;;;;;;;;;24.05;100.00;98028.94;5077634;28;19949;-70
2022/06/07 09:14:18;;;;;;;;;;;;;;;24.35;100.00;98018.25;5089246;28;19947;-69
2022/06/07 09:16:45;;;;;;;;;;;;;;;24.08;100.00;98020.19;5093108;28;20288;-70
2022/06/07 09:19:19;;;;;;;;;;;;;;;24.16;100.00;98006.25;5084226;28;20031;-70
2022/06/07 09:21:48;;;;;;;;;;;;;;;24.15;100.00;98016.94;5092293;28;19949;-70
2022/06/07 09:24:27;;;;;;;;;;;;;;;24.14;100.00;98011.69;5085312;27;19949;-70
2022/06/07 09:27:09;;;;;;;;;;;;;;;24.38;100.00;98011.53;5083975;28;20358;-70
2022/06/07 09:29:38;;;;;;;;;;;;;;;24.46;100.00;98015.53;5094092;28;19953;-70
2022/06/07 09:32:09;;;;;;;;;;;;;;;24.26;100.00;98013.44;5075217;28;19956;-70
2022/06/07 09:34:46;;;;;;;;;;;;;;;24.09;100.00;98003.81;5074457;28;20333;-70
2022/06/07 09:37:16;;;;;;;;;;;;;;;23.99;100.00;98005.97;5082848;28;20349;-70
2022/06/07 09:39:44;;;;;;;;;;;;;;;24.02;100.00;98010.72;5075821;28;20280;-70
2022/06/07 09:42:21;;;;;;;;;;;;;;;24.22;100.00;98010.00;5070714;28;19961;-70
2022/06/07 09:44:58;;;;;;;;;;;;;;;24.40;100.00;98006.91;5083359;28;19950;-70
2022/06/07 09:47:27;;;;;;;;;;;;;;;24.50;100.00;98004.69;5085605;28;19952;-70
2022/06/07 09:49:59;;;;;;;;;;;;;;;24.77;100.00;98012.91;5063407;28;19963;-70
2022/06/07 09:52:28;;;;;;;;;;;;;;;24.68;100.00;98004.41;5082230;28;19958;-70
2022/06/07 09:54:59;;;;;;;;;;;;;;;24.78;100.00;98003.00;5074190;28;19957;-70
2022/06/07 09:57:39;;;;;;;;;;;;;;;24.95;100.00;97995.41;5077581;28;20084;-69
2022/06/07 10:00:19;;;;;;;;;;;;;;;25.10;100.00;97992.47;5076235;28;19961;-70
2022/06/07 10:02:49;;;;;;;;;;;;;;;24.92;100.00;97995.66;5080195;28;19953;-70
2022/06/07 10:05:19;;;;;;;;;;;;;;;25.07;100.00;97985.69;5076372;28;19954;-70
2022/06/07 10:07:49;;;;;;;;;;;;;;;24.86;100.00;97994.78;5075241;28;20237;-70
2022/06/07 10:10:23;;;;;;;;;;;;;;;24.72;100.00;97988.59;5082893;28;19952;-70
2022/06/07 10:13:03;;;;;;;;;;;;;;;24.64;100.00;97987.47;5070207;28;19951;-70
2022/06/07 10:15:38;;;;;;;;;;;;;;;24.49;100.00;97980.25;5064758;28;19965;-70
2022/06/07 10:18:05;;;;;;;;;;;;;;;24.40;100.00;97978.31;5071007;28;19972;-70
2022/06/07 10:20:38;;;;;;;;;;;;;;;24.46;100.00;97975.53;5072799;28;19955;-70
2022/06/07 10:23:26;;;;;;;;;;;;;;;24.18;100.00;97972.28;5062496;28;20224;-69
2022/06/07 10:25:53;;;;;;;;;;;;;;;24.39;100.00;97971.03;5072000;28;19955;-69
2022/06/07 10:28:26;;;;;;;;;;;;;;;24.60;100.00;97969.72;5077176;28;19945;-70
2022/06/07 10:31:10;;;;;;;;;;;;;;;24.58;100.00;97969.44;5076806;28;19950;-69
2022/06/07 10:33:49;;;;;;;;;;;;;;;24.69;100.00;97968.81;5076699;28;20246;-70
2022/06/07 10:36:36;;;;;;;;;;;;;;;24.87;100.00;97968.53;5077253;28;19948;-70
2022/06/07 10:39:22;;;;;;;;;;;;;;;24.70;100.00;97961.78;5073908;28;19959;-70
2022/06/07 10:42:09;;;;;;;;;;;;;;;24.80;100.00;97957.53;5099022;28;19947;-70
2022/06/07 10:45:03;;;;;;;;;;;;;;;24.54;100.00;97959.53;5089041;28;19955;-70
2022/06/07 10:47:32;;;;;;;;;;;;;;;24.37;100.00;97950.72;5058099;28;19977;-69
2022/06/07 10:50:11;;;;;;;;;;;;;;;24.33;100.00;97938.72;5081680;28;19956;-70
2022/06/07 10:52:48;;;;;;;;;;;;;;;24.29;100.00;97945.91;5084391;28;19952;-70
2022/06/07 10:55:23;;;;;;;;;;;;;;;24.20;100.00;97946.84;5080261;28;20297;-70
2022/06/07 10:58:09;;;;;;;;;;;;;;;24.41;100.00;97939.06;5083761;28;19963;-70
2022/06/07 11:00:49;;;;;;;;;;;;;;;24.58;100.00;97937.22;5077521;28;19949;-70
2022/06/07 11:03:31;;;;;;;;;;;;;;;24.57;100.00;97927.06;5075126;28;19959;-70
2022/06/07 11:12:06;;;;;;;;;;;;;;;24.81;100.00;97930.50;5030199;28;20266;-70
2022/06/07 11:14:40;;;;;;;;;;;;;;;24.62;100.00;97912.06;5035869;28;19956;-70
2022/06/07 11:17:15;;;;;;;;;;;;;;;24.54;100.00;97908.06;5056979;28;19962;-70
2022/06/07 11:19:43;;;;;;;;;;;;;;;24.47;100.00;97905.63;5083415;28;19975;-70
2022/06/07 11:22:14;;;;;;;;;;;;;;;24.37;100.00;97887.84;5071021;28;19955;-70
2022/06/07 11:24:57;;;;;;;;;;;;;;;24.24;100.00;97889.47;5085685;28;20324;-70
2022/06/07 11:27:24;;;;;;;;;;;;;;;24.07;100.00;97887.19;5073653;28;19961;-70
2022/06/07 11:30:19;;;;;;;;;;;;;;;23.96;100.00;97901.31;5080184;28;19955;-70
2022/06/07 11:32:57;;;;;;;;;;;;;;;23.86;100.00;97893.34;5080285;28;19950;-70
2022/06/07 11:35:47;;;;;;;;;;;;;;;23.75;100.00;97896.03;5078819;28;19955;-70
2022/06/07 11:38:17;;;;;;;;;;;;;;;23.67;100.00;97907.06;5081198;28;19972;-70
2022/06/07 11:40:46;;;;;;;;;;;;;;;23.61;100.00;97906.22;5079544;28;19950;-70
2022/06/07 11:43:32;;;;;;;;;;;;;;;23.51;100.00;97919.81;5081312;28;19956;-70
2022/06/07 11:45:59;;;;;;;;;;;;;;;23.39;100.00;97925.81;5078954;28;19949;-70
2022/06/07 11:48:36;;;;;;;;;;;;;;;23.22;100.00;97930.44;5083004;28;19955;-70
2022/06/07 11:51:15;;;;;;;;;;;;;;;23.14;100.00;97920.69;5078788;28;20365;-70
2022/06/07 11:53:50;;;;;;;;;;;;;;;23.07;100.00;97913.31;5078164;28;19963;-70
2022/06/07 11:56:31;;;;;;;;;;;;;;;22.99;100.00;97928.44;5080492;28;19955;-70
2022/06/07 11:58:58;;;;;;;;;;;;;;;22.88;100.00;97924.13;5080849;28;19972;-71
2022/06/07 12:01:32;;;;;;;;;;;;;;;22.79;100.00;97912.78;5081734;28;19954;-77
2022/06/07 12:04:25;;;;;;;;;;;;;;;22.70;100.00;97900.69;5079856;28;19953;-70
2022/06/07 12:06:52;;;;;;;;;;;;;;;22.62;100.00;97888.88;5077809;28;19953;-70
2022/06/07 12:09:20;;;;;;;;;;;;;;;22.52;100.00;97886.56;5079435;28;19946;-70
2022/06/07 12:11:47;;;;;;;;;;;;;;;22.50;100.00;97881.34;5080965;28;20347;-70
2022/06/07 12:14:33;;;;;;;;;;;;;;;22.43;100.00;97893.13;5073114;28;19948;-70
2022/06/07 12:17:17;;;;;;;;;;;;;;;22.36;100.00;97926.91;5078485;28;19975;-70
2022/06/07 12:19:46;;;;;;;;;;;;;;;22.22;100.00;97932.06;5078994;28;19957;-70
2022/06/07 12:22:16;;;;;;;;;;;;;;;22.12;100.00;97929.75;5077744;28;19954;-70
2022/06/07 12:24:50;;;;;;;;;;;;;;;22.03;100.00;97915.59;5081628;28;20020;-70
2022/06/07 12:27:35;;;;;;;;;;;;;;;22.02;100.00;97914.00;5083068;28;19956;-70
2022/06/07 12:30:19;;;;;;;;;;;;;;;21.97;100.00;97901.22;5081465;28;19951;-70
2022/06/07 12:32:49;;;;;;;;;;;;;;;21.95;100.00;97908.66;5081422;28;19952;-70
2022/06/07 12:35:18;;;;;;;;;;;;;;;21.89;100.00;97897.16;5078757;28;19948;-70
2022/06/07 12:37:53;;;;;;;;;;;;;;;21.81;100.00;97892.28;5071876;28;19964;-70
2022/06/07 12:40:24;;;;;;;;;;;;;;;21.76;100.00;97912.84;5086145;28;19952;-70
2022/06/07 12:42:51;;;;;;;;;;;;;;;21.64;100.00;97928.84;5090347;27;19974;-70
2022/06/07 12:45:34;;;;;;;;;;;;;;;21.59;100.00;97940.91;5080506;28;19960;-70
2022/06/07 12:48:21;;;;;;;;;;;;;;;21.47;100.00;97956.91;5072763;28;19960;-70
2022/06/07 12:50:49;;;;;;;;;;;;;;;21.34;100.00;97950.66;5086562;28;19952;-70
2022/06/07 12:53:22;;;;;;;;;;;;;;;21.28;100.00;97958.22;5083978;28;19945;-70
2022/06/07 12:55:53;;;;;;;;;;;;;;;21.24;100.00;97971.03;5074878;28;19954;-70
2022/06/07 12:58:22;;;;;;;;;;;;;;;21.08;100.00;97986.38;5076165;28;20359;-70
2022/06/07 13:00:51;;;;;;;;;;;;;;;20.93;100.00;97991.13;5072098;28;19950;-70
2022/06/07 13:03:36;;;;;;;;;;;;;;;20.88;100.00;97980.41;5077720;28;19947;-70
2022/06/07 13:06:05;;;;;;;;;;;;;;;20.73;100.00;97968.09;5075488;28;20356;-70
2022/06/07 13:08:37;;;;;;;;;;;;;;;20.61;100.00;97961.31;5073917;28;19946;-70
2022/06/07 13:11:09;;;;;;;;;;;;;;;20.43;100.00;97961.28;5080664;28;19954;-70
2022/06/07 13:13:39;;;;;;;;;;;;;;;20.32;100.00;97963.78;5074091;28;19953;-70
2022/06/07 13:16:09;;;;;;;;;;;;;;;20.17;100.00;97960.72;5083219;28;19976;-70
2022/06/07 13:18:42;;;;;;;;;;;;;;;20.12;100.00;97957.75;5091588;28;19967;-70
2022/06/07 13:21:09;;;;;;;;;;;;;;;20.08;100.00;97962.75;5082536;28;20236;-70
2022/06/07 13:23:40;;;;;;;;;;;;;;;20.08;100.00;97974.91;5080937;28;19980;-70
2022/06/07 13:26:38;;;;;;;;;;;;;;;20.05;100.00;97975.06;5078993;28;19950;-69
2022/06/07 13:29:12;;;;;;;;;;;;;;;20.02;100.00;97965.44;5077806;28;19964;-70
2022/06/07 13:32:06;;;;;;;;;;;;;;;19.96;100.00;97953.13;5071672;28;20011;-70
2022/06/07 13:34:35;;;;;;;;;;;;;;;19.92;100.00;97949.66;5072698;28;19949;-70
2022/06/07 13:37:06;;;;;;;;;;;;;;;19.94;100.00;97954.84;5078963;28;19949;-70
2022/06/07 13:39:35;;;;;;;;;;;;;;;19.92;100.00;97954.53;5071437;28;19963;-70
2022/06/07 13:42:02;;;;;;;;;;;;;;;19.88;100.00;97949.00;5068623;28;19956;-70
2022/06/07 13:44:40;;;;;;;;;;;;;;;19.86;100.00;97945.03;5071892;28;19954;-70
2022/06/07 13:47:21;;;;;;;;;;;;;;;19.92;100.00;97932.63;5079423;28;19978;-70
2022/06/07 13:53:25;;;;;;;;;;;;;;;19.86;100.00;97917.47;5060193;28;19953;-70
2022/06/07 13:55:53;;;;;;;;;;;;;;;19.89;100.00;97913.69;5069204;28;19952;-70
2022/06/07 13:58:23;;;;;;;;;;;;;;;19.94;100.00;97893.22;5073717;28;19969;-70
2022/06/07 14:00:56;;;;;;;;;;;;;;;20.01;100.00;97890.06;5078664;28;19957;-70
2022/06/07 14:03:23;;;;;;;;;;;;;;;20.08;100.00;97889.75;5071678;28;19996;-70
2022/06/07 14:05:53;;;;;;;;;;;;;;;20.13;100.00;97883.44;5080449;28;20203;-70
2022/06/07 14:08:21;;;;;;;;;;;;;;;20.24;100.00;97889.50;5079467;28;19973;-70
2022/06/07 14:10:48;;;;;;;;;;;;;;;20.29;100.00;97888.88;5074959;28;19949;-70
2022/06/07 14:13:17;;;;;;;;;;;;;;;20.36;100.00;97886.97;5066793;28;19950;-70
2022/06/07 14:15:46;;;;;;;;;;;;;;;20.47;100.00;97882.38;5076059;28;19974;-70
2022/06/07 14:18:16;;;;;;;;;;;;;;;20.59;100.00;97880.66;5072813;28;20251;-70
2022/06/07 14:20:47;;;;;;;;;;;;;;;20.76;100.00;97885.50;5071574;28;19953;-70
2022/06/07 14:23:15;;;;;;;;;;;;;;;20.99;100.00;97881.19;5078205;28;19945;-70
2022/06/07 14:25:45;;;;;;;;;;;;;;;21.21;100.00;97881.00;5078024;28;19948;-70
2022/06/07 14:28:18;;;;;;;;;;;;;;;21.44;100.00;97872.53;5077184;28;20207;-70
2022/06/07 14:30:47;;;;;;;;;;;;;;;21.52;100.00;97876.59;5070081;28;19953;-70
2022/06/07 14:33:16;;;;;;;;;;;;;;;21.66;100.00;97877.19;5076151;28;20363;-70
2022/06/07 14:35:44;;;;;;;;;;;;;;;21.68;100.00;97880.31;5066827;28;19950;-70
2022/06/07 14:38:15;;;;;;;;;;;;;;;21.81;100.00;97866.66;5059465;28;19957;-69
2022/06/07 14:40:43;;;;;;;;;;;;;;;21.91;100.00;97865.38;5060789;28;19945;-69
2022/06/07 14:43:12;;;;;;;;;;;;;;;22.00;100.00;97854.69;5060400;28;19953;-70
2022/06/07 14:45:40;;;;;;;;;;;;;;;22.11;100.00;97852.06;5065448;28;20220;-69
2022/06/07 14:48:14;;;;;;;;;;;;;;;22.17;100.00;97850.13;5075110;28;19953;-70
2022/06/07 14:50:42;;;;;;;;;;;;;;;22.20;100.00;97848.38;5078013;28;20215;-70
2022/06/07 14:53:10;;;;;;;;;;;;;;;22.28;100.00;97855.25;5076166;28;19951;-70
2022/06/07 14:55:37;;;;;;;;;;;;;;;22.37;100.00;97846.66;5083333;28;19947;-70
2022/06/07 14:58:05;;;;;;;;;;;;;;;22.40;100.00;97848.50;5083838;28;19950;-70
2022/06/07 15:00:33;;;;;;;;;;;;;;;22.45;100.00;97856.38;5078929;28;20009;-70
2022/06/07 15:03:03;;;;;;;;;;;;;;;22.39;100.00;97861.19;5089928;28;19962;-70
2022/06/07 15:05:32;;;;;;;;;;;;;;;22.43;100.00;97856.09;5078602;28;19983;-70
2022/06/07 15:08:02;;;;;;;;;;;;;;;22.48;100.00;97854.63;5070985;28;20212;-70
2022/06/07 15:10:31;;;;;;;;;;;;;;;22.37;100.00;97854.41;5084172;28;20364;-70
2022/06/07 15:12:58;;;;;;;;;;;;;;;22.44;100.00;97854.81;5081857;27;19946;-70
2022/06/07 15:15:26;;;;;;;;;;;;;;;22.49;100.00;97841.97;5075926;28;20048;-70
2022/06/07 15:17:59;;;;;;;;;;;;;;;22.47;100.00;97848.13;5086684;28;19956;-70
2022/06/07 15:20:31;;;;;;;;;;;;;;;22.47;100.00;97836.72;5100223;28;19966;-70
2022/06/07 15:23:00;;;;;;;;;;;;;;;22.42;100.00;97831.72;5100379;28;19954;-70
2022/06/07 15:25:29;;;;;;;;;;;;;;;22.44;100.00;97826.31;5100421;28;19953;-70
2022/06/07 15:27:57;;;;;;;;;;;;;;;22.48;100.00;97828.97;5100544;28;19955;-70
2022/06/07 15:30:25;;;;;;;;;;;;;;;22.49;100.00;97831.34;5100189;28;20017;-70
2022/06/07 15:32:55;;;;;;;;;;;;;;;22.50;100.00;97835.75;5100393;28;19948;-70
2022/06/07 15:35:28;;;;;;;;;;;;;;;22.51;100.00;97823.09;5097917;28;20235;-70
2022/06/07 15:37:56;;;;;;;;;;;;;;;22.47;100.00;97825.31;5084203;28;19960;-70
2022/06/07 15:40:25;;;;;;;;;;;;;;;22.41;100.00;97826.50;5086711;28;19970;-70
2022/06/07 15:42:54;;;;;;;;;;;;;;;22.42;100.00;97833.78;5090063;28;19945;-70
2022/06/07 15:45:28;;;;;;;;;;;;;;;22.43;100.00;97832.50;5110002;27;19956;-70
2022/06/07 15:48:18;;;;;;;;;;;;;;;22.40;100.00;97831.41;5074089;28;19949;-70
2022/06/07 15:50:51;;;;;;;;;;;;;;;22.41;100.00;97830.16;5071531;28;19950;-70
2022/06/07 15:53:22;;;;;;;;;;;;;;;22.38;100.00;97839.66;5071399;28;20249;-70
2022/06/07 15:55:50;;;;;;;;;;;;;;;22.33;100.00;97836.69;5091518;28;19953;-70
2022/06/07 16:01:06;;;;;;;;;;;;;;;22.35;100.00;97842.72;5069253;28;20246;-70
2022/06/07 16:03:35;;;;;;;;;;;;;;;22.38;100.00;97838.88;5075174;28;19952;-70
2022/06/07 16:06:05;;;;;;;;;;;;;;;22.34;100.00;97847.63;5073340;28;19949;-70
2022/06/07 16:08:33;;;;;;;;;;;;;;;22.32;100.00;97847.31;5079353;28;19956;-70
2022/06/07 16:11:02;;;;;;;;;;;;;;;22.35;100.00;97846.34;5070914;28;19948;-70
2022/06/07 16:13:30;;;;;;;;;;;;;;;22.34;100.00;97844.78;5080676;28;20236;-71
2022/06/07 16:15:59;;;;;;;;;;;;;;;22.34;100.00;97844.78;5085911;28;20246;-70
2022/06/07 16:18:27;;;;;;;;;;;;;;;22.31;100.00;97842.09;5073766;28;19956;-70
2022/06/07 16:20:54;;;;;;;;;;;;;;;22.30;100.00;97835.63;5080783;27;19978;-70
2022/06/07 16:23:22;;;;;;;;;;;;;;;22.32;100.00;97840.84;5077816;28;19957;-70
2022/06/07 16:25:50;;;;;;;;;;;;;;;22.34;100.00;97836.22;5079983;28;19953;-70
2022/06/07 16:33:52;;;;;;;;;;;;;;;22.05;100.00;97850.38;5080699;28;20328;-70
2022/06/07 16:36:23;;;;;;;;;;;;;;;22.03;100.00;97859.41;5078541;28;19966;-70
2022/06/07 16:38:52;;;;;;;;;;;;;;;22.06;100.00;97860.50;5091213;28;19950;-70
2022/06/07 16:41:20;;;;;;;;;;;;;;;22.12;100.00;97862.19;5077892;28;19970;-70
2022/06/07 16:44:02;;;;;;;;;;;;;;;22.17;100.00;97860.75;5080366;28;19953;-70
2022/06/07 16:46:39;;;;;;;;;;;;;;;22.22;100.00;97857.22;5076755;28;19950;-70
2022/06/07 16:49:12;;;;;;;;;;;;;;;22.17;100.00;97860.75;5083927;28;19979;-70
2022/06/07 16:51:39;;;;;;;;;;;;;;;22.16;100.00;97853.47;5074386;28;19949;-70
2022/06/07 16:54:07;;;;;;;;;;;;;;;22.08;100.00;97850.19;5077815;28;20240;-70
2022/06/07 16:56:35;;;;;;;;;;;;;;;22.04;100.00;97843.91;5078287;28;19963;-71
2022/06/07 16:59:06;;;;;;;;;;;;;;;22.05;100.00;97851.19;5081422;28;19947;-70
2022/06/07 17:01:34;;;;;;;;;;;;;;;22.05;100.00;97850.38;5083806;28;19958;-70
2022/06/07 17:04:02;;;;;;;;;;;;;;;22.04;100.00;97849.59;5080095;28;19957;-69
2022/06/07 17:06:30;;;;;;;;;;;;;;;22.06;100.00;97846.25;5081047;28;19943;-70
2022/06/07 17:08:58;;;;;;;;;;;;;;;22.07;100.00;97847.84;5079472;28;20333;-70
2022/06/07 17:11:27;;;;;;;;;;;;;;;22.07;100.00;97854.31;5071324;28;19955;-70
2022/06/07 17:13:55;;;;;;;;;;;;;;;22.06;100.00;97861.28;5077648;28;19949;-70
2022/06/07 17:16:23;;;;;;;;;;;;;;;22.04;100.00;97852.44;5077814;28;19975;-70
2022/06/07 17:18:52;;;;;;;;;;;;;;;21.99;100.00;97867.34;5082007;28;20256;-70
2022/06/07 17:21:20;;;;;;;;;;;;;;;21.99;100.00;97858.81;5077087;28;20341;-70
2022/06/07 17:23:47;;;;;;;;;;;;;;;22.00;100.00;97868.94;5070274;28;19953;-70
2022/06/07 17:26:17;;;;;;;;;;;;;;;22.02;100.00;97857.06;5090038;28;20232;-70
2022/06/07 17:28:45;;;;;;;;;;;;;;;22.03;100.00;97855.78;5079520;28;19962;-70
2022/06/07 17:31:13;;;;;;;;;;;;;;;22.02;100.00;97859.91;5082604;28;19948;-70
2022/06/07 17:33:40;;;;;;;;;;;;;;;21.98;100.00;97854.38;5081580;28;19955;-70
2022/06/07 17:36:09;;;;;;;;;;;;;;;21.97;100.00;97852.81;5067776;28;20360;-70
2022/06/07 17:38:37;;;;;;;;;;;;;;;21.94;100.00;97858.69;5074310;28;19950;-70
2022/06/07 17:41:05;;;;;;;;;;;;;;;21.89;100.00;97854.44;5085734;28;19963;-70
2022/06/07 17:43:34;;;;;;;;;;;;;;;21.82;100.00;97859.69;5077385;28;19956;-70
2022/06/07 17:46:04;;;;;;;;;;;;;;;21.72;100.00;97852.47;5091828;28;19950;-70
2022/06/07 17:48:32;;;;;;;;;;;;;;;21.63;100.00;97847.63;5095024;28;19978;-70
2022/06/07 17:50:59;;;;;;;;;;;;;;;21.57;100.00;97853.19;5092854;28;19946;-70
2022/06/07 17:53:27;;;;;;;;;;;;;;;21.56;100.00;97851.63;5087312;28;19948;-70
2022/06/07 17:55:54;;;;;;;;;;;;;;;21.50;100.00;97850.69;5081808;28;20244;-70
2022/06/07 17:58:22;;;;;;;;;;;;;;;21.44;100.00;97844.09;5072863;28;19960;-70
2022/06/07 18:00:51;;;;;;;;;;;;;;;21.39;100.00;97839.06;5067057;28;19963;-70
2022/06/07 18:03:22;;;;;;;;;;;;;;;21.33;100.00;97846.66;5080140;28;19959;-70
2022/06/07 18:05:51;;;;;;;;;;;;;;;21.28;100.00;97850.16;5077984;28;19948;-70
2022/06/07 18:08:18;;;;;;;;;;;;;;;21.26;100.00;97843.38;5079015;28;19959;-70
2022/06/07 18:10:47;;;;;;;;;;;;;;;21.27;100.00;97847.81;5078212;28;19949;-70
2022/06/07 18:13:16;;;;;;;;;;;;;;;21.27;100.00;97848.59;5077783;28;19942;-70
2022/06/07 18:15:47;;;;;;;;;;;;;;;21.23;100.00;97847.97;5075137;28;19984;-71
2022/06/07 18:18:16;;;;;;;;;;;;;;;21.19;100.00;97850.22;5074633;28;19968;-70
2022/06/07 18:20:45;;;;;;;;;;;;;;;21.16;100.00;97854.00;5082203;28;19964;-70
2022/06/07 18:23:16;;;;;;;;;;;;;;;21.15;100.00;97848.81;5066498;28;19947;-70
2022/06/07 18:25:44;;;;;;;;;;;;;;;21.15;100.00;97857.34;5071183;28;19952;-70
2022/06/07 18:28:12;;;;;;;;;;;;;;;21.09;100.00;97857.19;5072216;28;19949;-70
2022/06/07 18:30:40;;;;;;;;;;;;;;;21.00;100.00;97845.81;5077765;28;19948;-70
2022/06/07 18:33:07;;;;;;;;;;;;;;;20.94;100.00;97848.53;5076286;28;20330;-71
2022/06/07 18:35:38;;;;;;;;;;;;;;;20.91;100.00;97848.69;5079903;28;20013;-70
2022/06/07 18:38:09;;;;;;;;;;;;;;;20.85;100.00;97853.44;5089048;28;19946;-70
2022/06/07 18:40:41;;;;;;;;;;;;;;;20.84;100.00;97849.81;5077594;28;19965;-70
2022/06/07 18:43:18;;;;;;;;;;;;;;;20.85;100.00;97853.44;5076516;28;20245;-70
2022/06/07 18:45:45;;;;;;;;;;;;;;;20.84;100.00;97860.38;5066004;28;19956;-70
